Time;durP1;ratioP1;P1;durP2;ratioP2;P2;SDS_P1;SDS_P2;PMS_P1;PMS_P2;Temp;Humidity;BMP_temperature;BMP_pressure;BME280_temperature;BME280_humidity;BME280_pressure;Samples;Min_cycle;Max_cycle;Signal;HPM_P1;HPM_P2
2022/01/20 11:25:49;;;;;;;19.80;11.68;;;;;;;3.06;61.08;99735.28;1716400;80;21426;-42
2022/01/20 11:33:52;;;;;;;21.93;10.63;;;;;;;2.00;65.58;99720.35;1739005;80;21504;-37
2022/01/20 11:36:49;;;;;;;17.75;9.55;;;;;;;1.63;67.90;99711.22;1738627;80;21579;-36
2022/01/20 11:39:18;;;;;;;18.55;10.43;;;;;;;1.42;68.61;99712.80;1739886;80;21384;-36
2022/01/20 11:41:47;;;;;;;21.85;11.97;;;;;;;1.34;69.64;99715.17;1740862;80;21090;-41
2022/01/20 11:44:19;;;;;;;17.98;10.13;;;;;;;1.32;70.29;99727.13;1740722;80;21505;-42
2022/01/20 11:47:35;;;;;;;23.90;11.43;;;;;;;1.33;70.43;99727.58;1744936;81;21647;-41
2022/01/20 11:50:36;;;;;;;21.85;9.98;;;;;;;1.32;70.80;99712.95;1743882;80;21036;-41
2022/01/20 11:53:42;;;;;;;21.82;11.48;;;;;;;1.29;70.99;99706.44;1737576;80;21524;-43
2022/01/20 11:56:33;;;;;;;19.35;10.23;;;;;;;1.23;71.05;99690.39;1737429;81;20998;-43
2022/01/20 11:59:00;;;;;;;18.40;10.43;;;;;;;1.17;71.10;99679.05;1673488;84;21466;-45
2022/01/20 12:01:27;;;;;;;23.70;11.30;;;;;;;1.13;72.31;99672.92;1721866;81;20978;-45
2022/01/20 12:03:55;;;;;;;23.32;11.28;;;;;;;1.15;72.15;99679.39;1718006;82;21420;-43
2022/01/20 12:06:25;;;;;;;24.25;12.60;;;;;;;1.21;72.36;99675.28;1715150;82;21546;-44
2022/01/20 12:08:59;;;;;;;;;;;;;;;1.28;72.41;99664.75;1724040;81;21001;-44
2022/01/20 12:11:46;;;;;;;23.90;12.23;;;;;;;1.33;72.32;99655.41;1717229;81;20616;-45
2022/01/20 12:14:14;;;;;;;26.85;12.30;;;;;;;1.31;72.15;99655.80;1723987;81;20965;-45
2022/01/20 12:16:42;;;;;;;22.05;13.03;;;;;;;1.26;72.63;99645.77;1719102;81;21572;-45
2022/01/20 12:19:10;;;;;;;22.55;11.85;;;;;;;1.19;73.17;99646.03;1722036;81;21718;-43
2022/01/20 12:21:39;;;;;;;23.40;13.93;;;;;;;1.17;73.53;99637.81;1709500;81;21089;-44
2022/01/20 12:24:06;;;;;;;24.70;13.83;;;;;;;1.19;74.40;99642.58;1690338;82;21539;-44
2022/01/20 12:26:44;;;;;;;27.37;15.05;;;;;;;1.22;75.14;99643.55;1684771;83;21003;-44
2022/01/20 12:29:11;;;;;;;23.70;12.68;;;;;;;1.28;75.11;99648.00;1685720;83;21447;-36
2022/01/20 12:31:53;;;;;;;24.32;13.30;;;;;;;1.34;75.37;99643.00;1686764;83;21645;-36
2022/01/20 12:34:44;;;;;;;21.35;11.75;;;;;;;1.38;75.56;99630.63;1684279;83;21027;-37
2022/01/20 12:37:16;;;;;;;22.52;13.43;;;;;;;1.43;76.15;99625.18;1705221;82;21037;-36
2022/01/20 12:39:43;;;;;;;24.12;12.25;;;;;;;1.47;75.98;99610.67;1705191;82;20966;-37
2022/01/20 12:42:22;;;;;;;24.02;11.53;;;;;;;1.49;76.15;99599.55;1705874;82;21140;-37
2022/01/20 12:45:55;;;;;;;20.62;10.20;;;;;;;1.53;76.03;99597.52;1709625;82;21006;-38
2022/01/20 12:47:47;;;;;;;21.75;10.85;;;;;;;1.59;75.91;99586.48;1701841;82;21575;-37
2022/01/20 12:50:14;;;;;;;22.95;10.72;;;;;;;1.64;75.74;99595.21;1704672;82;20990;-37
2022/01/20 12:52:50;;;;;;;20.62;10.38;;;;;;;1.68;75.73;99599.62;1706959;82;21042;-38
2022/01/20 12:55:22;;;;;;;18.27;11.08;;;;;;;1.71;75.70;99594.52;1711007;82;21617;-38
2022/01/20 12:57:45;;;;;;;19.12;10.28;;;;;;;1.71;75.42;99591.07;1704556;82;21033;-47
2022/01/20 13:00:13;;;;;;;18.55;10.08;;;;;;;1.71;75.65;99588.48;1707901;81;21009;-52
2022/01/20 13:02:40;;;;;;;18.57;10.30;;;;;;;1.70;75.73;99581.17;1712566;82;21650;-45
2022/01/20 13:05:12;;;;;;;14.83;9.03;;;;;;;1.67;75.73;99587.53;1711084;82;20969;-45
2022/01/20 13:07:39;;;;;;;15.58;9.58;;;;;;;1.64;75.80;99582.73;1699472;82;21099;-44
2022/01/20 13:10:30;;;;;;;14.65;9.23;;;;;;;1.62;76.19;99595.98;1707729;82;21300;-44
2022/01/20 13:12:55;;;;;;;14.47;9.00;;;;;;;1.60;76.13;99595.96;1705921;82;21435;-36
2022/01/20 13:15:28;;;;;;;13.55;9.05;;;;;;;1.62;76.28;99598.56;1710499;82;21363;-35
2022/01/20 13:18:07;;;;;;;17.20;8.83;;;;;;;1.65;75.93;99598.23;1705622;82;20990;-36
2022/01/20 13:20:40;;;;;;;15.50;9.25;;;;;;;1.67;75.80;99604.30;1707788;82;21534;-37
2022/01/20 13:23:54;;;;;;;19.17;9.33;;;;;;;1.69;75.76;99592.75;1729861;81;21034;-36
2022/01/20 13:25:40;;;;;;;15.30;8.93;;;;;;;1.69;76.02;99588.46;1731356;81;21055;-35
2022/01/20 13:28:09;;;;;;;16.95;10.05;;;;;;;1.70;76.19;99587.63;1732404;81;21988;-37
2022/01/20 13:30:47;;;;;;;24.25;10.18;;;;;;;1.74;76.13;99587.26;1732086;80;21044;-36
2022/01/20 13:33:19;;;;;;;18.75;11.97;;;;;;;1.74;75.98;99584.67;1737529;81;21379;-37
2022/01/20 13:35:57;;;;;;;23.42;11.22;;;;;;;1.75;76.10;99577.42;1734913;81;21570;-37
2022/01/20 13:38:32;;;;;;;18.02;11.50;;;;;;;1.76;76.32;99572.71;1735856;81;21031;-37
2022/01/20 13:41:07;;;;;;;23.98;10.95;;;;;;;1.77;76.20;99571.45;1736882;80;21042;-43
